Time;durP1;ratioP1;P1;durP2;ratioP2;P2;SDS_P1;SDS_P2;PMS_P1;PMS_P2;Temp;Humidity;BMP_temperature;BMP_pressure;BME280_temperature;BME280_humidity;BME280_pressure;Samples;Min_cycle;Max_cycle;Signal;HPM_P1;HPM_P2
2023/09/08 00:01:49;;;;;;;9.25;4.00;;;19.80;99.90;;;;;;4993995;28;20104;-77
2023/09/08 00:04:15;;;;;;;4.43;2.80;;;19.90;99.90;;;;;;4992090;28;20026;-77
2023/09/08 00:06:41;;;;;;;5.47;3.20;;;19.80;99.90;;;;;;4997258;28;20038;-77
2023/09/08 00:09:07;;;;;;;9.35;3.33;;;19.80;99.90;;;;;;4999515;28;20026;-76
2023/09/08 00:11:33;;;;;;;7.15;3.42;;;19.70;99.90;;;;;;4992274;28;20030;-77
2023/09/08 00:13:59;;;;;;;10.02;3.22;;;19.70;99.90;;;;;;4994547;28;20037;-77
2023/09/08 00:16:24;;;;;;;5.97;3.13;;;19.60;99.90;;;;;;5000351;28;20583;-76
2023/09/08 00:18:50;;;;;;;5.93;3.78;;;19.50;99.90;;;;;;5001950;28;20117;-77
2023/09/08 00:21:16;;;;;;;7.82;3.92;;;19.50;99.90;;;;;;5000175;28;20108;-77
2023/09/08 00:23:42;;;;;;;8.93;3.90;;;19.50;99.90;;;;;;4994504;28;20109;-77
2023/09/08 00:26:07;;;;;;;6.68;4.00;;;19.50;99.90;;;;;;4999646;28;20117;-77
2023/09/08 00:28:33;;;;;;;6.88;4.07;;;19.50;99.90;;;;;;5000780;28;20085;-76
2023/09/08 00:31:01;;;;;;;6.05;3.88;;;19.50;99.90;;;;;;4990544;28;20034;-77
2023/09/08 00:33:27;;;;;;;7.13;3.35;;;19.40;99.90;;;;;;5001618;28;20108;-77
2023/09/08 00:35:53;;;;;;;8.15;3.83;;;19.50;99.90;;;;;;4998722;28;20468;-77
2023/09/08 00:38:19;;;;;;;5.28;3.58;;;19.50;99.90;;;;;;4993997;28;20053;-77
2023/09/08 00:40:45;;;;;;;6.13;3.42;;;19.50;99.90;;;;;;4998129;28;20025;-76
2023/09/08 00:43:11;;;;;;;10.35;3.90;;;19.50;99.90;;;;;;4999308;28;20027;-77
2023/09/08 00:45:41;;;;;;;7.15;3.60;;;19.40;99.90;;;;;;4998261;28;20061;-77
2023/09/08 00:48:07;;;;;;;8.63;4.43;;;19.30;99.90;;;;;;4999193;28;20433;-77
2023/09/08 00:50:35;;;;;;;6.10;4.13;;;19.30;99.90;;;;;;4994478;28;20034;-77
2023/09/08 00:53:01;;;;;;;7.45;3.33;;;19.20;99.90;;;;;;4998813;28;20038;-77
2023/09/08 00:55:27;;;;;;;6.40;3.47;;;19.20;99.90;;;;;;4994766;28;20026;-77
2023/09/08 00:57:53;;;;;;;7.90;3.13;;;19.20;99.90;;;;;;4995578;28;20031;-77
2023/09/08 01:00:19;;;;;;;6.43;3.30;;;19.20;99.90;;;;;;5001821;28;20025;-77
2023/09/08 01:02:45;;;;;;;6.88;3.72;;;19.10;99.90;;;;;;4995692;28;20487;-77
2023/09/08 01:05:12;;;;;;;5.97;3.58;;;19.10;99.90;;;;;;4992649;28;20089;-77
2023/09/08 01:07:38;;;;;;;7.70;3.78;;;19.10;99.90;;;;;;4997586;28;20026;-77
2023/09/08 01:10:06;;;;;;;6.32;3.17;;;19.10;99.90;;;;;;4998903;28;20036;-77
2023/09/08 01:12:33;;;;;;;7.97;3.53;;;19.10;99.90;;;;;;4998285;28;20117;-77
2023/09/08 01:14:58;;;;;;;6.03;3.60;;;19.10;99.90;;;;;;5001763;28;20030;-77
2023/09/08 01:17:25;;;;;;;15.38;3.80;;;19.10;99.90;;;;;;5004753;28;20030;-77
2023/09/08 01:19:55;;;;;;;6.55;3.85;;;19.10;99.90;;;;;;5006932;28;20030;-77
2023/09/08 01:22:41;;;;;;;7.28;3.55;;;19.10;99.90;;;;;;4996510;28;20134;-77
2023/09/08 01:25:19;;;;;;;7.60;3.75;;;19.10;99.90;;;;;;4996903;28;20384;-77
2023/09/08 01:27:53;;;;;;;5.50;3.40;;;19.10;99.90;;;;;;5004517;28;20109;-77
2023/09/08 01:30:21;;;;;;;5.63;3.55;;;19.10;99.90;;;;;;4998998;28;20547;-76
2023/09/08 01:32:48;;;;;;;5.60;3.45;;;19.10;99.90;;;;;;5002520;28;20057;-76
2023/09/08 01:35:14;;;;;;;8.95;4.32;;;19.00;99.90;;;;;;4998687;28;20030;-77
2023/09/08 01:37:47;;;;;;;6.55;3.47;;;19.00;99.90;;;;;;5000176;28;20038;-77
2023/09/08 01:40:13;;;;;;;6.00;3.78;;;19.00;99.90;;;;;;4999587;28;20068;-77
2023/09/08 01:42:39;;;;;;;6.68;3.92;;;19.20;99.90;;;;;;4999606;28;20041;-76
2023/09/08 01:45:06;;;;;;;5.95;3.60;;;19.30;99.90;;;;;;4997715;28;20022;-77
2023/09/08 01:47:32;;;;;;;5.65;3.50;;;19.30;99.90;;;;;;4986047;28;20535;-77
2023/09/08 01:49:58;;;;;;;5.53;3.42;;;19.20;99.90;;;;;;4999968;28;20026;-77
2023/09/08 01:52:24;;;;;;;6.60;3.50;;;19.10;99.90;;;;;;5000222;28;20369;-77
2023/09/08 01:54:50;;;;;;;6.65;3.80;;;19.30;99.90;;;;;;4992837;28;20380;-77
2023/09/08 01:57:16;;;;;;;6.97;3.33;;;19.20;99.90;;;;;;5002875;28;20026;-77
2023/09/08 01:59:42;;;;;;;6.18;3.40;;;19.20;99.90;;;;;;4997624;28;20030;-77
2023/09/08 02:02:08;;;;;;;6.22;4.03;;;19.20;99.90;;;;;;4997421;28;20033;-77
2023/09/08 02:04:33;;;;;;;5.40;3.75;;;19.10;99.90;;;;;;4996673;28;20049;-77
2023/09/08 02:06:59;;;;;;;8.80;3.83;;;18.90;99.90;;;;;;4996517;28;20045;-77
2023/09/08 02:09:35;;;;;;;5.13;3.00;;;18.90;99.90;;;;;;5000866;28;20033;-77
2023/09/08 02:12:02;;;;;;;6.30;3.47;;;18.90;99.90;;;;;;5000298;28;20389;-77
2023/09/08 02:14:28;;;;;;;6.22;3.70;;;18.90;99.90;;;;;;4998336;28;20026;-77
2023/09/08 02:16:54;;;;;;;6.50;3.30;;;18.90;99.90;;;;;;4997508;28;20045;-76
2023/09/08 02:19:20;;;;;;;7.35;3.75;;;19.00;99.90;;;;;;4992011;28;20037;-77
2023/09/08 02:21:45;;;;;;;5.65;3.67;;;19.00;99.90;;;;;;4995868;28;20038;-76
2023/09/08 02:24:11;;;;;;;5.43;3.40;;;19.10;99.90;;;;;;4991797;28;20045;-77
2023/09/08 02:26:38;;;;;;;6.45;3.75;;;19.00;99.90;;;;;;4992288;28;20030;-77
2023/09/08 02:29:04;;;;;;;7.57;4.15;;;18.90;99.90;;;;;;4997396;28;20443;-77
2023/09/08 02:31:29;;;;;;;7.78;3.50;;;18.80;99.90;;;;;;4993728;28;20030;-77
2023/09/08 02:33:55;;;;;;;5.43;3.67;;;18.80;99.90;;;;;;4999896;28;20034;-77
2023/09/08 02:36:27;;;;;;;7.20;4.10;;;18.80;99.90;;;;;;4995134;28;20068;-77
2023/09/08 02:38:56;;;;;;;7.32;3.83;;;19.00;99.90;;;;;;4992490;28;20458;-77
2023/09/08 02:41:23;;;;;;;7.57;3.92;;;19.00;99.90;;;;;;4994074;28;20027;-77
2023/09/08 02:43:49;;;;;;;6.70;3.78;;;18.80;99.90;;;;;;4993361;28;20034;-77
2023/09/08 02:46:15;;;;;;;7.63;4.32;;;18.60;99.90;;;;;;4997453;28;20037;-77
2023/09/08 02:48:41;;;;;;;6.03;3.50;;;18.70;99.90;;;;;;4994669;28;20416;-77
2023/09/08 02:51:07;;;;;;;6.25;3.60;;;18.70;99.90;;;;;;4993772;28;20065;-77
2023/09/08 02:53:33;;;;;;;7.28;3.65;;;18.60;99.90;;;;;;4990059;28;20395;-77
2023/09/08 02:55:59;;;;;;;8.35;3.70;;;18.60;99.90;;;;;;4992109;28;20050;-77
2023/09/08 02:58:26;;;;;;;6.15;3.63;;;18.60;99.90;;;;;;4995941;28;20088;-77
2023/09/08 03:00:52;;;;;;;7.25;4.32;;;18.50;99.90;;;;;;5000738;28;20030;-77
2023/09/08 03:03:21;;;;;;;6.10;3.63;;;18.50;99.90;;;;;;4992312;28;20030;-77
2023/09/08 03:05:47;;;;;;;6.72;4.32;;;18.40;99.90;;;;;;4988143;28;20054;-77
2023/09/08 03:08:13;;;;;;;7.15;3.58;;;18.30;99.90;;;;;;4992136;28;20088;-77
2023/09/08 03:10:39;;;;;;;8.82;3.60;;;18.30;99.90;;;;;;4996924;28;20113;-78
2023/09/08 03:13:05;;;;;;;6.57;3.65;;;18.30;99.90;;;;;;4986731;28;20627;-77
2023/09/08 03:15:31;;;;;;;5.95;3.88;;;18.20;99.90;;;;;;4992345;28;20088;-77
2023/09/08 03:18:01;;;;;;;8.85;4.32;;;18.20;99.90;;;;;;4994191;28;20026;-77
2023/09/08 03:20:29;;;;;;;6.50;3.88;;;18.20;99.90;;;;;;4984327;28;20031;-78
2023/09/08 03:22:55;;;;;;;5.72;3.72;;;18.10;99.90;;;;;;4989149;28;20443;-77
2023/09/08 03:25:21;;;;;;;6.95;3.95;;;18.10;99.90;;;;;;4988427;28;20038;-78
2023/09/08 03:27:47;;;;;;;6.35;4.18;;;18.10;99.90;;;;;;4996014;28;20026;-78
2023/09/08 03:30:13;;;;;;;6.13;3.85;;;18.10;99.90;;;;;;4994204;28;20461;-77
2023/09/08 03:32:39;;;;;;;8.00;4.20;;;18.10;99.90;;;;;;4993027;28;20077;-78
2023/09/08 03:35:09;;;;;;;6.45;3.58;;;18.10;99.90;;;;;;4988404;28;20061;-77
2023/09/08 03:37:35;;;;;;;5.57;3.63;;;18.10;99.90;;;;;;4993870;28;20030;-77
2023/09/08 03:40:03;;;;;;;6.15;3.40;;;18.10;99.90;;;;;;4990713;28;20097;-77
2023/09/08 03:42:28;;;;;;;8.02;4.28;;;18.00;99.90;;;;;;4989577;28;20052;-77
2023/09/08 03:44:54;;;;;;;6.28;4.10;;;18.00;99.90;;;;;;4985329;28;20504;-79
2023/09/08 03:47:19;;;;;;;9.15;4.15;;;18.00;99.90;;;;;;4993523;28;20041;-77
2023/09/08 03:49:45;;;;;;;5.63;3.70;;;18.00;99.90;;;;;;4992498;28;20109;-77
2023/09/08 03:52:12;;;;;;;7.97;3.83;;;18.00;99.90;;;;;;4989083;28;20033;-76
2023/09/08 03:54:37;;;;;;;7.25;4.00;;;18.00;99.90;;;;;;4982444;28;20077;-76
2023/09/08 03:57:03;;;;;;;7.95;3.85;;;18.10;99.90;;;;;;4990736;28;20034;-77
2023/09/08 03:59:29;;;;;;;6.28;3.78;;;18.10;99.90;;;;;;4984447;28;20026;-77
2023/09/08 04:01:55;;;;;;;8.63;4.70;;;18.00;99.90;;;;;;4984076;28;20378;-77
2023/09/08 04:04:21;;;;;;;5.50;3.90;;;18.10;99.90;;;;;;4984289;28;20473;-77
2023/09/08 04:06:46;;;;;;;8.70;5.03;;;18.00;99.90;;;;;;4987798;28;20477;-78
2023/09/08 04:09:12;;;;;;;6.45;4.10;;;18.10;99.90;;;;;;4989787;28;20400;-78
2023/09/08 04:11:37;;;;;;;10.95;4.63;;;18.10;99.90;;;;;;4987827;28;20023;-77
2023/09/08 04:14:03;;;;;;;7.72;4.15;;;18.10;99.90;;;;;;4990276;28;20506;-77
2023/09/08 04:16:29;;;;;;;8.32;4.65;;;18.00;99.90;;;;;;4987279;28;20029;-77
2023/09/08 04:18:54;;;;;;;6.03;3.53;;;17.90;99.90;;;;;;4988826;28;20033;-78
2023/09/08 04:21:20;;;;;;;5.93;3.97;;;17.80;99.90;;;;;;4987280;28;20037;-79
2023/09/08 04:23:46;;;;;;;8.02;4.35;;;17.90;99.90;;;;;;4984289;28;20113;-77
2023/09/08 04:26:12;;;;;;;6.65;3.83;;;17.90;99.90;;;;;;4985084;28;20037;-78
2023/09/08 04:28:38;;;;;;;8.93;4.65;;;17.80;99.90;;;;;;4984987;28;20019;-77
2023/09/08 04:31:04;;;;;;;6.63;4.80;;;17.90;99.90;;;;;;4986347;28;20386;-77
2023/09/08 04:33:30;;;;;;;5.93;4.05;;;17.80;99.90;;;;;;4984019;28;20043;-79
2023/09/08 04:35:56;;;;;;;5.95;4.18;;;17.70;99.90;;;;;;4988431;28;20428;-77
2023/09/08 04:38:22;;;;;;;5.35;3.53;;;17.70;99.90;;;;;;4990963;28;20044;-77
2023/09/08 04:40:48;;;;;;;9.23;4.20;;;17.80;99.90;;;;;;4989157;28;20114;-77
2023/09/08 04:43:13;;;;;;;7.97;3.85;;;17.70;99.90;;;;;;4982897;28;20267;-78
2023/09/08 04:45:39;;;;;;;6.53;4.28;;;17.70;99.90;;;;;;4986648;28;20101;-78
2023/09/08 04:48:05;;;;;;;10.32;4.50;;;17.70;99.90;;;;;;4989713;28;20022;-79
2023/09/08 04:50:31;;;;;;;8.65;3.97;;;17.70;99.90;;;;;;4991599;28;20049;-79
2023/09/08 04:52:57;;;;;;;7.50;4.43;;;17.70;99.90;;;;;;4987345;28;20038;-78
2023/09/08 04:55:23;;;;;;;6.28;4.15;;;17.80;99.90;;;;;;4990056;28;20034;-78
2023/09/08 04:57:48;;;;;;;6.75;4.47;;;18.00;99.90;;;;;;4982992;28;20035;-78
2023/09/08 05:00:15;;;;;;;6.88;4.13;;;18.10;99.90;;;;;;4984304;28;20034;-79
2023/09/08 05:02:40;;;;;;;6.70;3.85;;;18.10;99.90;;;;;;4983835;28;20038;-78
2023/09/08 05:05:06;;;;;;;6.90;4.07;;;18.00;99.90;;;;;;4985289;28;20038;-78
2023/09/08 05:07:34;;;;;;;6.25;4.15;;;18.00;99.90;;;;;;4986443;28;20050;-78
2023/09/08 05:09:59;;;;;;;6.55;3.72;;;18.00;99.90;;;;;;4966785;28;20175;-79
2023/09/08 05:12:25;;;;;;;10.27;4.35;;;18.10;99.90;;;;;;4986598;28;20618;-78
2023/09/08 05:14:56;;;;;;;5.88;3.65;;;18.10;99.90;;;;;;4986799;28;20334;-79
2023/09/08 05:17:22;;;;;;;6.85;3.85;;;18.20;99.90;;;;;;4985297;28;20532;-78
2023/09/08 05:19:48;;;;;;;6.68;3.78;;;18.20;99.90;;;;;;4984070;28;20030;-79
2023/09/08 05:22:14;;;;;;;7.63;4.40;;;18.30;99.90;;;;;;4988563;28;20022;-79
2023/09/08 05:24:39;;;;;;;8.57;4.25;;;18.30;99.90;;;;;;4990417;28;20101;-78
2023/09/08 05:27:05;;;;;;;9.38;4.10;;;18.30;99.90;;;;;;4996272;28;20492;-79
2023/09/08 05:29:31;;;;;;;7.82;4.22;;;18.20;99.90;;;;;;4988703;28;20465;-78
2023/09/08 05:31:56;;;;;;;6.72;3.92;;;18.20;99.90;;;;;;4998827;28;20029;-79
2023/09/08 05:34:22;;;;;;;6.90;4.28;;;18.20;99.90;;;;;;4990507;28;20066;-79
2023/09/08 05:36:47;;;;;;;6.97;3.65;;;18.20;99.90;;;;;;4997328;28;20115;-78
2023/09/08 05:39:15;;;;;;;8.32;4.78;;;18.30;99.90;;;;;;4990073;28;20041;-80
2023/09/08 05:41:40;;;;;;;9.52;4.50;;;18.30;99.90;;;;;;4988257;28;20038;-78
2023/09/08 05:44:06;;;;;;;7.95;4.10;;;18.30;99.90;;;;;;4991413;28;20032;-78
2023/09/08 05:46:32;;;;;;;8.82;4.47;;;18.20;99.90;;;;;;4983359;28;20023;-78
2023/09/08 05:48:57;;;;;;;5.60;3.75;;;18.30;99.90;;;;;;4988147;28;20038;-78
2023/09/08 05:51:23;;;;;;;6.82;4.53;;;18.20;99.90;;;;;;4990512;28;20052;-78
2023/09/08 05:53:49;;;;;;;6.45;3.83;;;18.20;99.90;;;;;;4989659;28;20139;-77
2023/09/08 05:56:14;;;;;;;6.72;4.40;;;18.20;99.90;;;;;;4985916;28;20177;-78
2023/09/08 05:58:40;;;;;;;6.88;3.72;;;18.10;99.90;;;;;;4991892;28;20042;-78
2023/09/08 06:01:07;;;;;;;6.60;4.55;;;18.20;99.90;;;;;;4987495;28;20030;-78
2023/09/08 06:03:32;;;;;;;6.40;4.68;;;18.30;99.90;;;;;;4985917;28;20041;-78
2023/09/08 06:05:58;;;;;;;7.85;4.65;;;18.20;99.90;;;;;;4996948;28;20050;-78
2023/09/08 06:08:24;;;;;;;8.98;5.38;;;18.30;99.90;;;;;;4992757;28;20129;-78
2023/09/08 06:10:50;;;;;;;6.47;4.15;;;18.30;99.90;;;;;;4987603;28;20944;-79
2023/09/08 06:13:15;;;;;;;8.63;4.75;;;18.20;99.90;;;;;;4988250;28;20034;-77
2023/09/08 06:15:41;;;;;;;6.93;4.32;;;18.10;99.90;;;;;;4984467;28;20060;-78
2023/09/08 06:18:08;;;;;;;7.22;3.95;;;18.10;99.90;;;;;;4988568;28;20061;-78
2023/09/08 06:20:34;;;;;;;5.47;4.10;;;18.10;99.90;;;;;;4990300;28;20088;-78
2023/09/08 06:23:00;;;;;;;5.45;3.85;;;18.20;99.90;;;;;;4985367;28;20572;-80
2023/09/08 06:25:28;;;;;;;7.07;3.42;;;18.30;99.90;;;;;;4983893;28;20034;-79
2023/09/08 06:27:54;;;;;;;6.90;4.95;;;18.30;99.90;;;;;;4987105;28;21232;-78
2023/09/08 06:30:19;;;;;;;7.60;5.07;;;18.40;99.90;;;;;;4985843;28;20038;-79
2023/09/08 06:32:45;;;;;;;10.18;4.28;;;18.30;99.90;;;;;;4984639;28;20046;-77
2023/09/08 06:35:11;;;;;;;6.13;4.35;;;18.30;99.90;;;;;;4992571;28;20101;-79
2023/09/08 06:37:40;;;;;;;6.70;4.45;;;18.30;99.90;;;;;;4983611;28;20121;-80
2023/09/08 06:40:06;;;;;;;5.65;3.45;;;18.40;99.90;;;;;;4990607;28;20073;-78
2023/09/08 06:42:32;;;;;;;10.20;4.97;;;18.30;99.90;;;;;;4989525;28;20051;-79
2023/09/08 06:44:59;;;;;;;7.95;4.25;;;18.30;99.90;;;;;;4987260;28;20035;-78
2023/09/08 06:47:25;;;;;;;9.93;4.45;;;18.30;99.90;;;;;;4992373;28;20028;-78
2023/09/08 06:49:50;;;;;;;7.53;4.95;;;18.40;99.90;;;;;;4989105;28;20113;-80
2023/09/08 06:52:17;;;;;;;6.32;4.65;;;18.60;99.90;;;;;;4989449;28;20153;-78
2023/09/08 06:54:45;;;;;;;8.68;5.85;;;18.70;99.90;;;;;;4988437;28;20030;-78
2023/09/08 06:57:11;;;;;;;6.60;4.40;;;19.40;99.90;;;;;;4995492;28;20026;-79
2023/09/08 06:59:37;;;;;;;6.65;4.32;;;21.10;99.90;;;;;;4989986;28;20026;-79
2023/09/08 07:02:04;;;;;;;7.22;3.90;;;23.40;99.90;;;;;;4994235;28;20073;-79
2023/09/08 07:04:30;;;;;;;9.27;4.00;;;24.80;98.70;;;;;;4995652;28;20057;-80
2023/09/08 07:06:55;;;;;;;6.13;4.20;;;25.70;97.30;;;;;;4993299;28;20424;-79
2023/09/08 07:09:21;;;;;;;6.13;4.25;;;26.60;96.20;;;;;;4989823;28;20064;-80
2023/09/08 07:11:47;;;;;;;7.05;4.03;;;27.40;95.00;;;;;;4994150;28;20044;-79
2023/09/08 07:14:12;;;;;;;8.75;4.35;;;27.50;94.60;;;;;;4986370;28;20034;-79
2023/09/08 07:16:38;;;;;;;12.40;4.95;;;27.90;94.20;;;;;;4989421;28;20052;-79
2023/09/08 07:19:05;;;;;;;9.77;4.50;;;26.10;94.90;;;;;;4985510;28;20389;-79
2023/09/08 07:21:31;;;;;;;9.80;4.75;;;23.30;98.20;;;;;;4992550;28;20495;-79
2023/09/08 07:23:58;;;;;;;8.38;4.60;;;21.60;99.90;;;;;;4986887;28;20091;-79
2023/09/08 07:26:23;;;;;;;6.90;4.28;;;20.60;99.90;;;;;;4988433;28;20030;-78
2023/09/08 07:28:49;;;;;;;7.40;4.47;;;20.20;99.90;;;;;;4992579;28;20181;-79
2023/09/08 07:31:15;;;;;;;18.40;6.53;;;20.00;99.90;;;;;;4986586;28;20025;-80
2023/09/08 07:33:41;;;;;;;19.45;6.65;;;19.80;99.90;;;;;;4983528;28;20088;-78
2023/09/08 07:36:08;;;;;;;14.52;6.60;;;19.70;99.90;;;;;;4990979;28;20030;-80
2023/09/08 07:38:34;;;;;;;10.77;4.95;;;19.70;99.90;;;;;;4985658;28;20030;-79
2023/09/08 07:41:01;;;;;;;7.93;4.25;;;19.70;99.90;;;;;;4990222;28;20468;-78
2023/09/08 07:43:28;;;;;;;8.10;5.15;;;19.80;99.90;;;;;;4988787;28;20030;-79
2023/09/08 07:45:53;;;;;;;7.35;4.32;;;20.00;99.90;;;;;;4986975;28;20543;-80
2023/09/08 07:48:19;;;;;;;8.05;4.57;;;20.20;99.90;;;;;;4988565;28;20038;-80
2023/09/08 07:50:45;;;;;;;7.57;4.10;;;20.30;99.90;;;;;;4990938;28;20088;-80
2023/09/08 07:53:10;;;;;;;8.45;4.78;;;20.30;99.90;;;;;;4994789;28;20407;-80
2023/09/08 07:55:36;;;;;;;6.80;4.18;;;20.20;99.90;;;;;;4992897;28;20030;-80
2023/09/08 07:58:05;;;;;;;9.13;4.22;;;20.30;99.90;;;;;;4985328;28;20033;-80
2023/09/08 08:00:31;;;;;;;8.40;4.72;;;20.20;99.90;;;;;;4985942;28;20034;-80
2023/09/08 08:02:58;;;;;;;8.82;4.70;;;20.20;99.90;;;;;;4985675;28;20073;-81
2023/09/08 08:05:25;;;;;;;7.22;5.03;;;20.30;99.90;;;;;;4981365;28;20084;-80
2023/09/08 08:07:51;;;;;;;8.77;5.10;;;20.30;99.90;;;;;;4985096;28;20057;-79
2023/09/08 08:10:17;;;;;;;7.30;5.15;;;20.40;99.90;;;;;;4986366;28;20117;-80
2023/09/08 08:12:43;;;;;;;8.38;5.13;;;20.50;99.90;;;;;;4984840;28;20128;-80
2023/09/08 08:15:12;;;;;;;7.30;5.28;;;20.40;99.90;;;;;;4989000;28;20034;-79
2023/09/08 08:17:39;;;;;;;7.25;4.95;;;20.50;99.90;;;;;;4993951;28;20046;-80
2023/09/08 08:20:08;;;;;;;9.93;5.72;;;20.60;99.90;;;;;;4986603;28;23665;-82
2023/09/08 08:22:34;;;;;;;7.85;4.43;;;20.70;99.90;;;;;;4995027;28;20041;-82
2023/09/08 08:25:01;;;;;;;7.50;4.28;;;20.70;99.90;;;;;;4994830;28;20034;-81
2023/09/08 08:27:27;;;;;;;7.43;4.53;;;20.80;99.90;;;;;;4992469;28;20036;-81
2023/09/08 08:29:52;;;;;;;6.10;4.00;;;20.90;99.90;;;;;;4985455;28;20023;-81
2023/09/08 08:32:18;;;;;;;11.57;4.95;;;20.90;99.90;;;;;;4986007;28;20084;-82
2023/09/08 08:34:44;;;;;;;9.05;5.03;;;20.90;99.90;;;;;;4984750;28;20038;-82
2023/09/08 08:37:11;;;;;;;8.20;4.85;;;20.90;99.90;;;;;;4984282;28;20065;-82
2023/09/08 08:39:36;;;;;;;9.52;4.82;;;20.90;99.90;;;;;;4986309;28;20092;-82
2023/09/08 08:42:10;;;;;;;6.78;4.20;;;21.00;99.90;;;;;;4991903;28;20034;-82
2023/09/08 08:44:37;;;;;;;8.00;4.97;;;21.20;99.90;;;;;;4989204;28;20042;-81
2023/09/08 08:47:06;;;;;;;6.85;4.55;;;21.20;99.90;;;;;;4985362;28;20036;-82
2023/09/08 08:49:33;;;;;;;6.85;4.30;;;21.20;99.90;;;;;;4986456;28;20377;-84
2023/09/08 08:52:00;;;;;;;11.40;4.88;;;21.10;99.90;;;;;;4981624;28;20461;-83
2023/09/08 08:54:26;;;;;;;8.00;5.22;;;21.20;99.90;;;;;;4986221;28;20044;-82
2023/09/08 08:56:52;;;;;;;7.55;4.30;;;21.70;99.90;;;;;;4989619;28;20034;-81
2023/09/08 08:59:18;;;;;;;7.07;4.53;;;24.60;99.90;;;;;;4988432;28;20046;-81
2023/09/08 09:01:45;;;;;;;6.95;4.28;;;27.20;99.30;;;;;;4985397;28;20061;-79
2023/09/08 09:04:12;;;;;;;8.57;4.25;;;27.90;97.40;;;;;;4991840;28;20018;-80
2023/09/08 09:06:37;;;;;;;7.30;4.15;;;28.40;97.20;;;;;;4984022;28;20046;-81
2023/09/08 09:09:08;;;;;;;7.47;4.43;;;28.70;96.00;;;;;;4989609;28;20034;-79
2023/09/08 09:11:33;;;;;;;7.35;4.80;;;28.50;96.00;;;;;;4994017;28;20026;-80
2023/09/08 09:13:59;;;;;;;7.43;5.07;;;28.80;96.10;;;;;;4991482;28;20916;-81
2023/09/08 09:16:25;;;;;;;10.20;4.60;;;29.00;95.60;;;;;;4995616;28;20034;-80
2023/09/08 09:18:56;;;;;;;10.98;4.97;;;29.40;95.40;;;;;;4993187;28;20030;-79
2023/09/08 09:21:22;;;;;;;7.90;4.97;;;29.90;94.50;;;;;;4995411;28;20049;-79
2023/09/08 09:23:48;;;;;;;10.43;4.93;;;29.40;94.40;;;;;;4992308;28;20041;-80
2023/09/08 09:26:24;;;;;;;6.03;4.38;;;29.70;94.40;;;;;;4996761;28;20025;-81
2023/09/08 09:28:52;;;;;;;9.07;4.97;;;30.00;94.60;;;;;;4996350;28;20461;-82
2023/09/08 09:31:18;;;;;;;8.57;5.03;;;30.30;94.30;;;;;;4995015;28;20730;-81
2023/09/08 09:33:45;;;;;;;8.50;5.07;;;30.30;94.30;;;;;;4999305;28;20037;-80
2023/09/08 09:36:20;;;;;;;7.88;4.70;;;30.20;94.10;;;;;;4996641;28;20456;-80
2023/09/08 09:38:47;;;;;;;5.50;3.83;;;28.30;95.20;;;;;;4991094;28;20567;-81
2023/09/08 09:41:13;;;;;;;7.97;4.68;;;28.30;95.00;;;;;;4988874;28;20622;-79
2023/09/08 09:43:39;;;;;;;9.93;4.65;;;27.90;95.80;;;;;;4991856;28;20037;-80
2023/09/08 09:46:08;;;;;;;9.20;4.70;;;27.00;96.00;;;;;;4984490;28;20100;-80
2023/09/08 09:48:35;;;;;;;10.52;4.63;;;26.10;96.30;;;;;;4988198;28;20057;-81
2023/09/08 09:51:16;;;;;;;9.38;4.85;;;25.30;97.40;;;;;;4993861;28;20032;-80
2023/09/08 09:53:42;;;;;;;9.70;4.38;;;24.80;97.80;;;;;;4991794;28;20103;-80
2023/09/08 09:56:09;;;;;;;9.10;5.00;;;24.70;97.90;;;;;;4993841;28;20034;-79
2023/09/08 09:58:37;;;;;;;6.35;4.45;;;24.60;98.10;;;;;;4990628;28;20099;-79
2023/09/08 10:01:04;;;;;;;7.70;4.63;;;24.30;98.20;;;;;;4987445;28;20173;-79
2023/09/08 10:03:30;;;;;;;7.03;4.80;;;24.30;98.60;;;;;;4990718;28;20030;-79
2023/09/08 10:05:56;;;;;;;8.20;4.50;;;24.70;98.30;;;;;;4991363;28;20615;-80
2023/09/08 10:08:23;;;;;;;6.82;4.65;;;24.50;97.90;;;;;;4990621;28;20112;-81
2023/09/08 10:10:50;;;;;;;8.60;5.07;;;24.40;98.30;;;;;;4990859;28;20026;-81
2023/09/08 10:13:23;;;;;;;7.80;5.13;;;24.60;98.70;;;;;;4991135;28;20050;-80
2023/09/08 10:15:49;;;;;;;8.70;5.10;;;24.90;98.40;;;;;;4986734;28;20041;-81
2023/09/08 10:18:19;;;;;;;14.48;7.32;;;24.90;98.20;;;;;;4994671;28;20030;-80
2023/09/08 10:20:46;;;;;;;7.40;5.32;;;24.90;98.30;;;;;;4988148;28;20495;-80
2023/09/08 10:23:54;;;;;;;7.80;5.10;;;25.10;98.90;;;;;;4986689;28;20088;-79
2023/09/08 10:26:26;;;;;;;6.35;4.47;;;25.20;98.00;;;;;;4944396;29;20031;-79
2023/09/08 10:28:55;;;;;;;7.72;4.05;;;25.40;97.70;;;;;;4984077;28;20046;-79
2023/09/08 10:31:23;;;;;;;5.65;4.50;;;25.30;97.50;;;;;;4998712;28;20049;-79
2023/09/08 10:33:49;;;;;;;6.90;4.43;;;25.30;97.70;;;;;;4989129;28;20058;-79
2023/09/08 10:36:15;;;;;;;6.78;4.10;;;25.20;97.50;;;;;;4985765;28;20361;-79
2023/09/08 10:38:41;;;;;;;8.02;4.78;;;25.40;98.10;;;;;;4986109;28;20027;-78
2023/09/08 10:41:16;;;;;;;6.00;4.13;;;25.30;97.90;;;;;;4993312;28;20022;-79
2023/09/08 10:43:45;;;;;;;7.00;4.03;;;25.60;97.40;;;;;;4986215;28;20041;-79
2023/09/08 10:46:21;;;;;;;6.43;3.97;;;25.60;96.80;;;;;;4985364;28;20124;-79
2023/09/08 10:48:47;;;;;;;7.00;4.32;;;25.80;97.20;;;;;;4988114;28;20521;-79
2023/09/08 10:51:21;;;;;;;6.80;4.63;;;26.00;97.40;;;;;;4993972;28;20113;-79
2023/09/08 10:53:48;;;;;;;7.43;4.63;;;26.10;97.30;;;;;;4990613;28;20484;-80
2023/09/08 10:56:14;;;;;;;7.05;4.75;;;26.10;96.80;;;;;;4985436;28;20066;-80
2023/09/08 10:58:42;;;;;;;7.45;4.55;;;26.30;97.20;;;;;;4988950;28;20058;-80
2023/09/08 11:01:15;;;;;;;5.97;4.40;;;26.50;97.50;;;;;;4993143;28;20037;-79
2023/09/08 11:03:40;;;;;;;5.57;3.70;;;26.50;96.50;;;;;;4987062;28;20088;-79
2023/09/08 11:06:06;;;;;;;6.55;4.45;;;26.40;96.60;;;;;;4986338;28;20050;-79
2023/09/08 11:08:38;;;;;;;8.40;4.53;;;26.50;96.60;;;;;;4992212;28;20054;-79
2023/09/08 11:11:04;;;;;;;7.07;4.53;;;26.70;97.40;;;;;;4986965;28;20029;-80
2023/09/08 11:13:30;;;;;;;5.80;3.83;;;26.60;97.00;;;;;;4987824;28;20046;-79
2023/09/08 11:15:56;;;;;;;11.45;4.28;;;26.60;96.10;;;;;;4987699;28;20516;-79
2023/09/08 11:18:29;;;;;;;6.30;3.85;;;26.60;96.40;;;;;;4987965;28;20034;-79
2023/09/08 11:20:55;;;;;;;8.18;3.92;;;26.60;96.40;;;;;;4988565;28;20643;-79
2023/09/08 11:23:22;;;;;;;5.45;3.65;;;26.60;95.90;;;;;;4985438;28;20029;-79
2023/09/08 11:25:49;;;;;;;8.27;4.10;;;26.60;95.80;;;;;;4986083;28;20511;-80
2023/09/08 11:28:15;;;;;;;6.80;4.40;;;26.60;96.30;;;;;;4985400;28;20030;-79
2023/09/08 11:30:41;;;;;;;8.23;4.00;;;26.90;96.60;;;;;;4987167;28;20050;-80
2023/09/08 11:33:17;;;;;;;7.72;4.18;;;27.00;95.80;;;;;;4995727;28;20061;-79
2023/09/08 11:35:45;;;;;;;8.43;4.35;;;26.80;95.90;;;;;;4989391;28;20455;-79
2023/09/08 11:38:11;;;;;;;5.97;4.00;;;27.10;95.90;;;;;;4989134;28;20033;-79
2023/09/08 11:40:37;;;;;;;6.55;3.72;;;27.10;96.00;;;;;;4986388;28;20200;-79
2023/09/08 11:43:05;;;;;;;6.35;4.22;;;27.20;96.80;;;;;;4989515;28;20029;-79
2023/09/08 11:45:34;;;;;;;9.63;4.40;;;27.10;96.60;;;;;;4985252;28;20121;-79
2023/09/08 11:47:59;;;;;;;11.55;3.75;;;27.20;96.30;;;;;;4985587;28;20527;-79
2023/09/08 11:50:25;;;;;;;6.38;3.92;;;27.40;96.40;;;;;;4985332;28;20026;-79
2023/09/08 11:52:53;;;;;;;8.48;4.05;;;27.50;96.80;;;;;;4985317;28;20034;-79
2023/09/08 11:55:20;;;;;;;7.30;3.95;;;27.60;96.60;;;;;;4984528;28;20030;-79
2023/09/08 11:57:50;;;;;;;9.27;4.20;;;27.50;95.80;;;;;;4986285;28;20034;-80
2023/09/08 12:00:18;;;;;;;6.03;3.78;;;27.50;96.30;;;;;;4987682;28;20038;-79
2023/09/08 12:02:45;;;;;;;5.75;3.55;;;27.60;95.10;;;;;;4984445;28;20650;-79
2023/09/08 12:05:27;;;;;;;7.45;3.80;;;27.70;94.60;;;;;;4989385;28;20045;-80
2023/09/08 12:07:58;;;;;;;7.03;3.22;;;27.90;94.50;;;;;;4985944;28;20030;-79
2023/09/08 12:10:25;;;;;;;6.03;3.80;;;27.50;94.40;;;;;;4985157;28;20022;-79
2023/09/08 12:12:58;;;;;;;7.97;4.20;;;27.20;94.70;;;;;;4990733;28;20133;-79
2023/09/08 12:15:36;;;;;;;7.03;3.63;;;27.10;95.10;;;;;;4986527;28;20033;-79
2023/09/08 12:18:04;;;;;;;7.50;3.50;;;27.40;94.40;;;;;;4985118;28;20278;-79
2023/09/08 12:20:31;;;;;;;7.55;3.92;;;27.70;94.30;;;;;;4991356;28;20034;-80
2023/09/08 12:23:02;;;;;;;5.28;3.38;;;27.90;94.00;;;;;;4984579;28;20026;-79
2023/09/08 12:25:28;;;;;;;5.55;3.58;;;28.20;93.90;;;;;;4986780;28;20049;-79
2023/09/08 12:27:54;;;;;;;6.45;3.45;;;28.40;93.80;;;;;;4988542;28;20626;-80
2023/09/08 12:30:29;;;;;;;5.80;3.60;;;28.60;94.00;;;;;;4991383;28;20040;-79
2023/09/08 12:32:57;;;;;;;6.03;3.67;;;28.60;93.00;;;;;;4990750;28;20064;-79
2023/09/08 12:35:23;;;;;;;7.05;3.65;;;28.40;93.10;;;;;;4987642;28;20122;-79
2023/09/08 12:37:56;;;;;;;7.43;4.13;;;28.60;93.80;;;;;;4988890;28;20029;-79
2023/09/08 12:40:22;;;;;;;7.17;4.63;;;28.70;93.40;;;;;;4991206;28;20570;-79
2023/09/08 12:42:48;;;;;;;7.88;3.70;;;28.70;93.20;;;;;;4988620;28;20026;-79
2023/09/08 12:45:14;;;;;;;7.60;4.18;;;28.70;93.40;;;;;;4990651;28;20531;-79